sensor_id;sensor_type;location;lat;lon;timestamp;pressure;altitude;pressure_sealevel;temperature
80537;BMP280;69867;47.074;15.404;2023-08-30T00:01:15;96382.84;;;16.71
80537;BMP280;69867;47.074;15.404;2023-08-30T00:03:41;96382.00;;;16.70
80537;BMP280;69867;47.074;15.404;2023-08-30T00:06:06;96384.41;;;16.73
80537;BMP280;69867;47.074;15.404;2023-08-30T00:08:33;96390.50;;;16.74
80537;BMP280;69867;47.074;15.404;2023-08-30T00:10:58;96392.19;;;16.75
80537;BMP280;69867;47.074;15.404;2023-08-30T00:13:26;96393.34;;;16.71
80537;BMP280;69867;47.074;15.404;2023-08-30T00:15:52;96392.50;;;16.70
80537;BMP280;69867;47.074;15.404;2023-08-30T00:18:17;96388.81;;;16.73
80537;BMP280;69867;47.074;15.404;2023-08-30T00:20:43;96387.34;;;16.69
80537;BMP280;69867;47.074;15.404;2023-08-30T00:23:08;96400.56;;;16.67
80537;BMP280;69867;47.074;15.404;2023-08-30T00:25:33;96397.09;;;16.67
80537;BMP280;69867;47.074;15.404;2023-08-30T00:27:59;96407.50;;;16.68
80537;BMP280;69867;47.074;15.404;2023-08-30T00:30:24;96414.41;;;16.69
80537;BMP280;69867;47.074;15.404;2023-08-30T00:32:49;96417.97;;;16.68
80537;BMP280;69867;47.074;15.404;2023-08-30T00:35:15;96418.81;;;16.69
80537;BMP280;69867;47.074;15.404;2023-08-30T00:37:40;96410.13;;;16.68
80537;BMP280;69867;47.074;15.404;2023-08-30T00:40:06;96417.97;;;16.68
80537;BMP280;69867;47.074;15.404;2023-08-30T00:42:31;96421.53;;;16.67
80537;BMP280;69867;47.074;15.404;2023-08-30T00:44:57;96425.75;;;16.70
80537;BMP280;69867;47.074;15.404;2023-08-30T00:47:22;96424.72;;;16.72
80537;BMP280;69867;47.074;15.404;2023-08-30T00:49:48;96424.50;;;16.75
80537;BMP280;69867;47.074;15.404;2023-08-30T00:52:13;96429.75;;;16.75
80537;BMP280;69867;47.074;15.404;2023-08-30T00:54:39;96434.16;;;16.75
80537;BMP280;69867;47.074;15.404;2023-08-30T00:57:05;96436.88;;;16.73
80537;BMP280;69867;47.074;15.404;2023-08-30T00:59:32;96436.25;;;16.70
80537;BMP280;69867;47.074;15.404;2023-08-30T01:01:58;96444.00;;;16.71
80537;BMP280;69867;47.074;15.404;2023-08-30T01:04:24;96449.25;;;16.71
80537;BMP280;69867;47.074;15.404;2023-08-30T01:06:50;96439.72;;;16.70
80537;BMP280;69867;47.074;15.404;2023-08-30T01:09:16;96447.38;;;16.73
80537;BMP280;69867;47.074;15.404;2023-08-30T01:11:47;96442.97;;;16.74
80537;BMP280;69867;47.074;15.404;2023-08-30T01:14:18;96441.09;;;16.76
80537;BMP280;69867;47.074;15.404;2023-08-30T01:16:46;96434.91;;;16.77
80537;BMP280;69867;47.074;15.404;2023-08-30T01:22:21;96442.22;;;16.72
80537;BMP280;69867;47.074;15.404;2023-08-30T01:25:04;96444.84;;;16.72
80537;BMP280;69867;47.074;15.404;2023-08-30T01:27:31;96448.72;;;16.66
80537;BMP280;69867;47.074;15.404;2023-08-30T01:29:58;96444.41;;;16.65
80537;BMP280;69867;47.074;15.404;2023-08-30T01:32:25;96441.00;;;16.63
80537;BMP280;69867;47.074;15.404;2023-08-30T01:34:50;96440.06;;;16.64
80537;BMP280;69867;47.074;15.404;2023-08-30T01:37:16;96440.00;;;16.66
80537;BMP280;69867;47.074;15.404;2023-08-30T01:39:42;96443.94;;;16.58
80537;BMP280;69867;47.074;15.404;2023-08-30T01:42:09;96439.53;;;16.59
80537;BMP280;69867;47.074;15.404;2023-08-30T01:44:35;96440.47;;;16.58
80537;BMP280;69867;47.074;15.404;2023-08-30T01:47:00;96430.09;;;16.56
80537;BMP280;69867;47.074;15.404;2023-08-30T01:49:29;96435.53;;;16.53
80537;BMP280;69867;47.074;15.404;2023-08-30T01:51:55;96427.56;;;16.55
80537;BMP280;69867;47.074;15.404;2023-08-30T01:54:20;96425.88;;;16.54
80537;BMP280;69867;47.074;15.404;2023-08-30T01:56:46;96427.53;;;16.42
80537;BMP280;69867;47.074;15.404;2023-08-30T01:59:12;96435.19;;;16.45
80537;BMP280;69867;47.074;15.404;2023-08-30T02:01:37;96429.84;;;16.47
80537;BMP280;69867;47.074;15.404;2023-08-30T02:04:03;96423.66;;;16.48
80537;BMP280;69867;47.074;15.404;2023-08-30T02:06:50;96428.28;;;16.44
80537;BMP280;69867;47.074;15.404;2023-08-30T02:12:11;96425.31;;;16.36
80537;BMP280;69867;47.074;15.404;2023-08-30T02:14:38;96421.09;;;16.33
80537;BMP280;69867;47.074;15.404;2023-08-30T02:17:05;96426.44;;;16.32
80537;BMP280;69867;47.074;15.404;2023-08-30T02:19:32;96424.84;;;16.29
80537;BMP280;69867;47.074;15.404;2023-08-30T02:21:57;96425.78;;;16.28
80537;BMP280;69867;47.074;15.404;2023-08-30T02:24:24;96432.91;;;16.26
80537;BMP280;69867;47.074;15.404;2023-08-30T02:26:49;96427.78;;;16.25
80537;BMP280;69867;47.074;15.404;2023-08-30T02:29:14;96434.81;;;16.24
80537;BMP280;69867;47.074;15.404;2023-08-30T02:31:40;96433.13;;;16.23
80537;BMP280;69867;47.074;15.404;2023-08-30T02:34:05;96432.28;;;16.23
80537;BMP280;69867;47.074;15.404;2023-08-30T02:36:30;96429.00;;;16.19
80537;BMP280;69867;47.074;15.404;2023-08-30T02:38:56;96439.59;;;16.18
80537;BMP280;69867;47.074;15.404;2023-08-30T02:41:21;96438.94;;;16.14
80537;BMP280;69867;47.074;15.404;2023-08-30T02:43:47;96436.72;;;16.08
80537;BMP280;69867;47.074;15.404;2023-08-30T02:46:12;96440.84;;;15.98
80537;BMP280;69867;47.074;15.404;2023-08-30T02:48:37;96436.34;;;16.00
80537;BMP280;69867;47.074;15.404;2023-08-30T02:51:03;96433.84;;;15.98
80537;BMP280;69867;47.074;15.404;2023-08-30T02:53:28;96446.13;;;15.84
80537;BMP280;69867;47.074;15.404;2023-08-30T02:55:54;96431.34;;;15.83
80537;BMP280;69867;47.074;15.404;2023-08-30T02:58:19;96435.00;;;15.80
80537;BMP280;69867;47.074;15.404;2023-08-30T03:00:45;96437.53;;;15.67
80537;BMP280;69867;47.074;15.404;2023-08-30T03:03:10;96434.72;;;15.71
80537;BMP280;69867;47.074;15.404;2023-08-30T03:05:36;96441.84;;;15.68
80537;BMP280;69867;47.074;15.404;2023-08-30T03:08:01;96435.94;;;15.65
80537;BMP280;69867;47.074;15.404;2023-08-30T03:10:26;96437.72;;;15.64
80537;BMP280;69867;47.074;15.404;2023-08-30T03:12:52;96438.28;;;15.70
80537;BMP280;69867;47.074;15.404;2023-08-30T03:15:17;96440.16;;;15.67
80537;BMP280;69867;47.074;15.404;2023-08-30T03:17:43;96438.47;;;15.66
80537;BMP280;69867;47.074;15.404;2023-08-30T03:20:08;96433.03;;;15.70
80537;BMP280;69867;47.074;15.404;2023-08-30T03:22:34;96436.69;;;15.67
80537;BMP280;69867;47.074;15.404;2023-08-30T03:24:59;96426.31;;;15.65
80537;BMP280;69867;47.074;15.404;2023-08-30T03:27:25;96429.78;;;15.66
80537;BMP280;69867;47.074;15.404;2023-08-30T03:29:50;96430.06;;;15.61
80537;BMP280;69867;47.074;15.404;2023-08-30T03:32:17;96437.47;;;15.53
80537;BMP280;69867;47.074;15.404;2023-08-30T03:34:45;96427.59;;;15.58
80537;BMP280;69867;47.074;15.404;2023-08-30T03:37:10;96432.69;;;15.61
80537;BMP280;69867;47.074;15.404;2023-08-30T03:39:35;96421.06;;;15.65
80537;BMP280;69867;47.074;15.404;2023-08-30T03:42:01;96418.81;;;15.74
80537;BMP280;69867;47.074;15.404;2023-08-30T03:44:26;96412.34;;;15.79
80537;BMP280;69867;47.074;15.404;2023-08-30T03:46:51;96410.38;;;15.83
80537;BMP280;69867;47.074;15.404;2023-08-30T03:49:17;96409.00;;;15.77
80537;BMP280;69867;47.074;15.404;2023-08-30T03:51:42;96421.16;;;15.78
80537;BMP280;69867;47.074;15.404;2023-08-30T03:54:08;96411.91;;;15.73
80537;BMP280;69867;47.074;15.404;2023-08-30T03:56:33;96419.38;;;15.64
80537;BMP280;69867;47.074;15.404;2023-08-30T03:58:58;96418.13;;;15.56
80537;BMP280;69867;47.074;15.404;2023-08-30T04:01:24;96421.03;;;15.51
80537;BMP280;69867;47.074;15.404;2023-08-30T04:03:49;96415.97;;;15.48
80537;BMP280;69867;47.074;15.404;2023-08-30T04:06:15;96426.63;;;15.45
80537;BMP280;69867;47.074;15.404;2023-08-30T04:08:40;96431.97;;;15.44
80537;BMP280;69867;47.074;15.404;2023-08-30T04:11:05;96433.00;;;15.41
80537;BMP280;69867;47.074;15.404;2023-08-30T04:13:31;96433.19;;;15.38
80537;BMP280;69867;47.074;15.404;2023-08-30T04:15:56;96432.91;;;15.28
80537;BMP280;69867;47.074;15.404;2023-08-30T04:18:22;96425.31;;;15.24
80537;BMP280;69867;47.074;15.404;2023-08-30T04:20:47;96418.41;;;15.23
80537;BMP280;69867;47.074;15.404;2023-08-30T04:23:13;96425.41;;;15.22
80537;BMP280;69867;47.074;15.404;2023-08-30T04:25:40;96429.06;;;15.20
80537;BMP280;69867;47.074;15.404;2023-08-30T04:28:05;96412.69;;;15.16
80537;BMP280;69867;47.074;15.404;2023-08-30T04:30:31;96414.38;;;15.17
80537;BMP280;69867;47.074;15.404;2023-08-30T04:32:56;96418.78;;;15.17
80537;BMP280;69867;47.074;15.404;2023-08-30T04:35:22;96412.78;;;15.15
80537;BMP280;69867;47.074;15.404;2023-08-30T04:37:47;96410.19;;;15.15
80537;BMP280;69867;47.074;15.404;2023-08-30T04:40:13;96408.31;;;15.17
80537;BMP280;69867;47.074;15.404;2023-08-30T04:42:38;96408.22;;;15.18
80537;BMP280;69867;47.074;15.404;2023-08-30T04:45:04;96413.16;;;15.23
80537;BMP280;69867;47.074;15.404;2023-08-30T04:47:30;96422.34;;;15.30
80537;BMP280;69867;47.074;15.404;2023-08-30T04:49:56;96430.56;;;15.38
80537;BMP280;69867;47.074;15.404;2023-08-30T04:52:21;96432.81;;;15.44
80537;BMP280;69867;47.074;15.404;2023-08-30T04:54:46;96435.41;;;15.44
80537;BMP280;69867;47.074;15.404;2023-08-30T04:57:12;96430.66;;;15.51
80537;BMP280;69867;47.074;15.404;2023-08-30T04:59:38;96421.59;;;15.56
80537;BMP280;69867;47.074;15.404;2023-08-30T05:02:03;96426.16;;;15.53
80537;BMP280;69867;47.074;15.404;2023-08-30T05:04:29;96430.38;;;15.55
80537;BMP280;69867;47.074;15.404;2023-08-30T05:06:54;96426.31;;;15.65
80537;BMP280;69867;47.074;15.404;2023-08-30T05:09:19;96432.41;;;15.66
80537;BMP280;69867;47.074;15.404;2023-08-30T05:11:45;96428.00;;;15.66
80537;BMP280;69867;47.074;15.404;2023-08-30T05:14:10;96421.72;;;15.69
80537;BMP280;69867;47.074;15.404;2023-08-30T05:16:35;96424.41;;;15.82
80537;BMP280;69867;47.074;15.404;2023-08-30T05:19:01;96421.81;;;15.82
80537;BMP280;69867;47.074;15.404;2023-08-30T05:21:26;96427.03;;;15.82
80537;BMP280;69867;47.074;15.404;2023-08-30T05:23:51;96429.06;;;16.05
80537;BMP280;69867;47.074;15.404;2023-08-30T05:26:17;96426.50;;;16.18
80537;BMP280;69867;47.074;15.404;2023-08-30T05:28:42;96435.34;;;16.29
80537;BMP280;69867;47.074;15.404;2023-08-30T05:31:08;96436.97;;;16.45
80537;BMP280;69867;47.074;15.404;2023-08-30T05:33:33;96438.78;;;16.57
80537;BMP280;69867;47.074;15.404;2023-08-30T05:35:59;96437.44;;;16.64
80537;BMP280;69867;47.074;15.404;2023-08-30T05:38:24;96440.44;;;16.72
80537;BMP280;69867;47.074;15.404;2023-08-30T05:40:49;96447.69;;;16.81
80537;BMP280;69867;47.074;15.404;2023-08-30T05:43:15;96444.78;;;16.86
80537;BMP280;69867;47.074;15.404;2023-08-30T05:45:40;96452.69;;;16.99
80537;BMP280;69867;47.074;15.404;2023-08-30T05:48:06;96448.81;;;17.04
80537;BMP280;69867;47.074;15.404;2023-08-30T05:50:31;96454.38;;;17.00
80537;BMP280;69867;47.074;15.404;2023-08-30T05:52:56;96453.22;;;17.04
80537;BMP280;69867;47.074;15.404;2023-08-30T05:55:22;96458.19;;;17.08
80537;BMP280;69867;47.074;15.404;2023-08-30T05:57:47;96454.94;;;17.17
80537;BMP280;69867;47.074;15.404;2023-08-30T06:00:13;96455.66;;;17.19
80537;BMP280;69867;47.074;15.404;2023-08-30T06:02:39;96454.28;;;17.14
80537;BMP280;69867;47.074;15.404;2023-08-30T06:05:04;96462.59;;;17.20
80537;BMP280;69867;47.074;15.404;2023-08-30T06:07:30;96452.19;;;17.19
80537;BMP280;69867;47.074;15.404;2023-08-30T06:09:55;96461.13;;;17.16
80537;BMP280;69867;47.074;15.404;2023-08-30T06:12:21;96464.78;;;17.14
80537;BMP280;69867;47.074;15.404;2023-08-30T06:14:46;96470.78;;;17.16
80537;BMP280;69867;47.074;15.404;2023-08-30T06:17:12;96474.56;;;17.24
80537;BMP280;69867;47.074;15.404;2023-08-30T06:19:37;96472.69;;;17.26
80537;BMP280;69867;47.074;15.404;2023-08-30T06:22:02;96479.72;;;17.26
80537;BMP280;69867;47.074;15.404;2023-08-30T06:24:28;96476.16;;;17.27
80537;BMP280;69867;47.074;15.404;2023-08-30T06:26:53;96481.94;;;17.32
80537;BMP280;69867;47.074;15.404;2023-08-30T06:29:19;96485.94;;;17.50
80537;BMP280;69867;47.074;15.404;2023-08-30T06:31:44;96486.28;;;17.71
80537;BMP280;69867;47.074;15.404;2023-08-30T06:34:09;96480.88;;;17.98
80537;BMP280;69867;47.074;15.404;2023-08-30T06:36:35;96486.72;;;18.14
80537;BMP280;69867;47.074;15.404;2023-08-30T06:39:00;96484.38;;;18.35
80537;BMP280;69867;47.074;15.404;2023-08-30T06:41:26;96497.56;;;18.59
80537;BMP280;69867;47.074;15.404;2023-08-30T06:43:51;96501.28;;;18.80
80537;BMP280;69867;47.074;15.404;2023-08-30T06:46:16;96505.19;;;18.99
80537;BMP280;69867;47.074;15.404;2023-08-30T06:48:42;96505.19;;;18.99
80537;BMP280;69867;47.074;15.404;2023-08-30T06:51:07;96495.09;;;19.28
80537;BMP280;69867;47.074;15.404;2023-08-30T06:53:33;96495.00;;;19.53
80537;BMP280;69867;47.074;15.404;2023-08-30T06:55:59;96498.31;;;19.20
80537;BMP280;69867;47.074;15.404;2023-08-30T06:58:25;96508.69;;;19.10
80537;BMP280;69867;47.074;15.404;2023-08-30T07:00:51;96508.69;;;19.10
80537;BMP280;69867;47.074;15.404;2023-08-30T07:03:16;96493.19;;;19.54
80537;BMP280;69867;47.074;15.404;2023-08-30T07:05:45;96505.44;;;18.72
80537;BMP280;69867;47.074;15.404;2023-08-30T07:08:10;96507.03;;;18.62
80537;BMP280;69867;47.074;15.404;2023-08-30T07:10:36;96507.44;;;18.92
80537;BMP280;69867;47.074;15.404;2023-08-30T07:13:01;96510.75;;;19.18
80537;BMP280;69867;47.074;15.404;2023-08-30T07:15:27;96510.75;;;19.18
80537;BMP280;69867;47.074;15.404;2023-08-30T07:17:53;96506.16;;;19.79
80537;BMP280;69867;47.074;15.404;2023-08-30T07:20:18;96511.81;;;20.08
80537;BMP280;69867;47.074;15.404;2023-08-30T07:22:44;96511.81;;;20.08
80537;BMP280;69867;47.074;15.404;2023-08-30T07:25:09;96509.41;;;20.16
80537;BMP280;69867;47.074;15.404;2023-08-30T07:27:35;96517.44;;;20.14
80537;BMP280;69867;47.074;15.404;2023-08-30T07:30:03;96519.81;;;20.29
80537;BMP280;69867;47.074;15.404;2023-08-30T07:32:29;96514.53;;;20.29
80537;BMP280;69867;47.074;15.404;2023-08-30T07:34:55;96525.22;;;20.05
80537;BMP280;69867;47.074;15.404;2023-08-30T07:37:21;96533.13;;;20.05
80537;BMP280;69867;47.074;15.404;2023-08-30T07:39:46;96537.81;;;20.24
80537;BMP280;69867;47.074;15.404;2023-08-30T07:42:13;96537.81;;;20.24
80537;BMP280;69867;47.074;15.404;2023-08-30T07:44:39;96523.19;;;20.31
80537;BMP280;69867;47.074;15.404;2023-08-30T07:47:04;96533.25;;;20.37
80537;BMP280;69867;47.074;15.404;2023-08-30T07:49:29;96534.09;;;20.37
80537;BMP280;69867;47.074;15.404;2023-08-30T07:51:55;96536.00;;;20.58
80537;BMP280;69867;47.074;15.404;2023-08-30T07:54:20;96541.28;;;20.58
80537;BMP280;69867;47.074;15.404;2023-08-30T07:56:46;96541.63;;;20.64
80537;BMP280;69867;47.074;15.404;2023-08-30T07:59:12;96546.28;;;20.72
80537;BMP280;69867;47.074;15.404;2023-08-30T08:01:37;96550.28;;;20.55
80537;BMP280;69867;47.074;15.404;2023-08-30T08:04:03;96552.44;;;20.50
80537;BMP280;69867;47.074;15.404;2023-08-30T08:06:28;96551.81;;;20.69
80537;BMP280;69867;47.074;15.404;2023-08-30T08:08:54;96551.81;;;20.69
80537;BMP280;69867;47.074;15.404;2023-08-30T08:11:19;96553.38;;;20.83
80537;BMP280;69867;47.074;15.404;2023-08-30T08:13:44;96550.91;;;21.02
80537;BMP280;69867;47.074;15.404;2023-08-30T08:16:10;96553.00;;;21.30
80537;BMP280;69867;47.074;15.404;2023-08-30T08:18:36;96555.53;;;21.53
80537;BMP280;69867;47.074;15.404;2023-08-30T08:21:01;96556.38;;;21.53
80537;BMP280;69867;47.074;15.404;2023-08-30T08:23:27;96556.38;;;21.53
80537;BMP280;69867;47.074;15.404;2023-08-30T08:25:59;96553.59;;;21.76
80537;BMP280;69867;47.074;15.404;2023-08-30T08:28:25;96556.81;;;21.79
80537;BMP280;69867;47.074;15.404;2023-08-30T08:30:50;96556.81;;;21.79
80537;BMP280;69867;47.074;15.404;2023-08-30T08:33:15;96554.28;;;21.98
80537;BMP280;69867;47.074;15.404;2023-08-30T08:35:41;96559.28;;;22.13
80537;BMP280;69867;47.074;15.404;2023-08-30T08:38:06;96556.75;;;21.90
80537;BMP280;69867;47.074;15.404;2023-08-30T08:40:31;96558.59;;;21.99
80537;BMP280;69867;47.074;15.404;2023-08-30T08:42:57;96553.47;;;22.19
80537;BMP280;69867;47.074;15.404;2023-08-30T08:45:23;96553.47;;;22.19
80537;BMP280;69867;47.074;15.404;2023-08-30T08:47:48;96559.13;;;22.35
80537;BMP280;69867;47.074;15.404;2023-08-30T08:50:14;96546.66;;;22.56
80537;BMP280;69867;47.074;15.404;2023-08-30T08:52:40;96546.66;;;22.56
80537;BMP280;69867;47.074;15.404;2023-08-30T08:55:06;96552.19;;;22.44
80537;BMP280;69867;47.074;15.404;2023-08-30T08:57:31;96552.19;;;22.44
80537;BMP280;69867;47.074;15.404;2023-08-30T08:59:57;96548.91;;;22.61
80537;BMP280;69867;47.074;15.404;2023-08-30T09:02:23;96548.91;;;22.61
80537;BMP280;69867;47.074;15.404;2023-08-30T09:04:49;96536.94;;;22.76
80537;BMP280;69867;47.074;15.404;2023-08-30T09:07:14;96537.88;;;22.56
80537;BMP280;69867;47.074;15.404;2023-08-30T09:09:40;96537.88;;;22.56
80537;BMP280;69867;47.074;15.404;2023-08-30T09:12:06;96542.31;;;22.46
80537;BMP280;69867;47.074;15.404;2023-08-30T09:14:31;96543.00;;;22.48
80537;BMP280;69867;47.074;15.404;2023-08-30T09:16:58;96541.44;;;22.85
80537;BMP280;69867;47.074;15.404;2023-08-30T09:19:24;96541.44;;;22.85
80537;BMP280;69867;47.074;15.404;2023-08-30T09:21:53;96543.13;;;22.86
80537;BMP280;69867;47.074;15.404;2023-08-30T09:24:18;96544.28;;;23.32
80537;BMP280;69867;47.074;15.404;2023-08-30T09:26:53;96544.28;;;23.32
80537;BMP280;69867;47.074;15.404;2023-08-30T09:29:20;96538.41;;;23.86
80537;BMP280;69867;47.074;15.404;2023-08-30T09:31:46;96537.59;;;23.76
80537;BMP280;69867;47.074;15.404;2023-08-30T09:34:12;96532.13;;;23.39
80537;BMP280;69867;47.074;15.404;2023-08-30T09:36:39;96541.47;;;23.14
80537;BMP280;69867;47.074;15.404;2023-08-30T09:39:12;96534.50;;;23.33
80537;BMP280;69867;47.074;15.404;2023-08-30T09:41:45;96536.59;;;23.29
80537;BMP280;69867;47.074;15.404;2023-08-30T09:44:15;96543.31;;;23.81
80537;BMP280;69867;47.074;15.404;2023-08-30T09:46:45;96536.47;;;23.50
80537;BMP280;69867;47.074;15.404;2023-08-30T09:49:11;96532.03;;;23.70
80537;BMP280;69867;47.074;15.404;2023-08-30T09:51:41;96532.03;;;23.70
80537;BMP280;69867;47.074;15.404;2023-08-30T09:54:13;96525.84;;;23.88
80537;BMP280;69867;47.074;15.404;2023-08-30T09:56:39;96518.75;;;23.79
80537;BMP280;69867;47.074;15.404;2023-08-30T09:59:06;96524.31;;;22.89
80537;BMP280;69867;47.074;15.404;2023-08-30T10:01:32;96522.94;;;23.14
80537;BMP280;69867;47.074;15.404;2023-08-30T10:03:58;96522.22;;;23.31
80537;BMP280;69867;47.074;15.404;2023-08-30T10:06:25;96521.28;;;23.52
80537;BMP280;69867;47.074;15.404;2023-08-30T10:08:52;96521.28;;;23.52
80537;BMP280;69867;47.074;15.404;2023-08-30T10:11:18;96517.19;;;22.90
80537;BMP280;69867;47.074;15.404;2023-08-30T10:13:44;96515.41;;;23.10
80537;BMP280;69867;47.074;15.404;2023-08-30T10:16:14;96523.25;;;22.61
80537;BMP280;69867;47.074;15.404;2023-08-30T10:18:41;96511.44;;;22.75
80537;BMP280;69867;47.074;15.404;2023-08-30T10:21:11;96512.19;;;23.06
80537;BMP280;69867;47.074;15.404;2023-08-30T10:23:38;96512.19;;;23.06
80537;BMP280;69867;47.074;15.404;2023-08-30T10:26:04;96507.88;;;23.73
80537;BMP280;69867;47.074;15.404;2023-08-30T10:28:31;96503.97;;;23.67
80537;BMP280;69867;47.074;15.404;2023-08-30T10:30:56;96503.97;;;23.67
80537;BMP280;69867;47.074;15.404;2023-08-30T10:33:22;96498.59;;;24.33
80537;BMP280;69867;47.074;15.404;2023-08-30T10:35:48;96501.53;;;24.57
80537;BMP280;69867;47.074;15.404;2023-08-30T10:38:24;96500.66;;;24.67
80537;BMP280;69867;47.074;15.404;2023-08-30T10:40:49;96497.84;;;24.68
80537;BMP280;69867;47.074;15.404;2023-08-30T10:43:15;96497.84;;;24.68
80537;BMP280;69867;47.074;15.404;2023-08-30T10:45:40;96502.13;;;24.51
80537;BMP280;69867;47.074;15.404;2023-08-30T10:48:06;96498.88;;;24.85
80537;BMP280;69867;47.074;15.404;2023-08-30T10:50:32;96497.22;;;24.84
80537;BMP280;69867;47.074;15.404;2023-08-30T10:52:58;96497.81;;;24.78
80537;BMP280;69867;47.074;15.404;2023-08-30T10:55:24;96500.84;;;24.83
80537;BMP280;69867;47.074;15.404;2023-08-30T10:58:01;96505.56;;;24.89
80537;BMP280;69867;47.074;15.404;2023-08-30T11:00:28;96510.69;;;24.45
80537;BMP280;69867;47.074;15.404;2023-08-30T11:02:54;96516.13;;;23.60
80537;BMP280;69867;47.074;15.404;2023-08-30T11:05:24;96519.88;;;23.48
80537;BMP280;69867;47.074;15.404;2023-08-30T11:07:51;96519.88;;;23.48
80537;BMP280;69867;47.074;15.404;2023-08-30T11:10:17;96518.75;;;23.50
80537;BMP280;69867;47.074;15.404;2023-08-30T11:12:44;96506.06;;;24.47
80537;BMP280;69867;47.074;15.404;2023-08-30T11:15:10;96507.06;;;24.46
80537;BMP280;69867;47.074;15.404;2023-08-30T11:17:36;96514.06;;;24.75
80537;BMP280;69867;47.074;15.404;2023-08-30T11:20:12;96505.94;;;24.94
80537;BMP280;69867;47.074;15.404;2023-08-30T11:22:39;96504.34;;;24.56
80537;BMP280;69867;47.074;15.404;2023-08-30T11:25:05;96498.03;;;24.84
80537;BMP280;69867;47.074;15.404;2023-08-30T11:27:32;96493.06;;;24.99
80537;BMP280;69867;47.074;15.404;2023-08-30T11:30:01;96501.72;;;25.19
80537;BMP280;69867;47.074;15.404;2023-08-30T11:32:27;96501.72;;;25.19
80537;BMP280;69867;47.074;15.404;2023-08-30T11:34:56;96489.72;;;24.97
80537;BMP280;69867;47.074;15.404;2023-08-30T11:37:21;96489.72;;;24.97
80537;BMP280;69867;47.074;15.404;2023-08-30T11:39:51;96498.16;;;25.10
80537;BMP280;69867;47.074;15.404;2023-08-30T11:42:17;96498.16;;;25.10
80537;BMP280;69867;47.074;15.404;2023-08-30T11:44:44;96490.09;;;25.20
80537;BMP280;69867;47.074;15.404;2023-08-30T11:47:09;96491.19;;;25.09
80537;BMP280;69867;47.074;15.404;2023-08-30T11:49:35;96485.94;;;25.00
80537;BMP280;69867;47.074;15.404;2023-08-30T11:52:01;96488.50;;;25.09
80537;BMP280;69867;47.074;15.404;2023-08-30T11:54:27;96488.66;;;25.08
80537;BMP280;69867;47.074;15.404;2023-08-30T11:56:52;96488.66;;;25.08
80537;BMP280;69867;47.074;15.404;2023-08-30T11:59:22;96487.84;;;25.07
80537;BMP280;69867;47.074;15.404;2023-08-30T12:01:48;96487.84;;;25.07
80537;BMP280;69867;47.074;15.404;2023-08-30T12:04:14;96486.91;;;25.16
80537;BMP280;69867;47.074;15.404;2023-08-30T12:06:52;96481.47;;;25.00
80537;BMP280;69867;47.074;15.404;2023-08-30T12:09:18;96483.34;;;25.26
80537;BMP280;69867;47.074;15.404;2023-08-30T12:11:43;96474.50;;;25.43
80537;BMP280;69867;47.074;15.404;2023-08-30T12:14:09;96475.66;;;25.23
80537;BMP280;69867;47.074;15.404;2023-08-30T12:16:34;96471.38;;;25.47
80537;BMP280;69867;47.074;15.404;2023-08-30T12:19:10;96473.69;;;25.25
80537;BMP280;69867;47.074;15.404;2023-08-30T12:21:47;96469.97;;;24.54
80537;BMP280;69867;47.074;15.404;2023-08-30T12:24:12;96468.22;;;24.91
80537;BMP280;69867;47.074;15.404;2023-08-30T12:26:38;96468.22;;;24.91
80537;BMP280;69867;47.074;15.404;2023-08-30T12:29:05;96453.91;;;25.45
80537;BMP280;69867;47.074;15.404;2023-08-30T12:31:32;96458.44;;;25.09
80537;BMP280;69867;47.074;15.404;2023-08-30T12:33:57;96460.94;;;25.10
80537;BMP280;69867;47.074;15.404;2023-08-30T12:36:22;96457.75;;;25.25
80537;BMP280;69867;47.074;15.404;2023-08-30T12:38:48;96450.72;;;25.41
80537;BMP280;69867;47.074;15.404;2023-08-30T12:41:13;96453.34;;;25.15
80537;BMP280;69867;47.074;15.404;2023-08-30T12:43:39;96457.53;;;25.00
80537;BMP280;69867;47.074;15.404;2023-08-30T12:46:04;96457.53;;;25.00
80537;BMP280;69867;47.074;15.404;2023-08-30T12:48:30;96458.25;;;23.92
80537;BMP280;69867;47.074;15.404;2023-08-30T12:50:55;96466.56;;;23.60
80537;BMP280;69867;47.074;15.404;2023-08-30T12:53:21;96466.56;;;23.60
80537;BMP280;69867;47.074;15.404;2023-08-30T12:55:46;96463.50;;;23.26
80537;BMP280;69867;47.074;15.404;2023-08-30T12:58:11;96472.97;;;22.71
80537;BMP280;69867;47.074;15.404;2023-08-30T13:00:37;96472.97;;;22.71
80537;BMP280;69867;47.074;15.404;2023-08-30T13:03:02;96477.72;;;22.18
80537;BMP280;69867;47.074;15.404;2023-08-30T13:05:28;96477.72;;;22.18
80537;BMP280;69867;47.074;15.404;2023-08-30T13:07:54;96477.31;;;21.71
80537;BMP280;69867;47.074;15.404;2023-08-30T13:10:19;96480.09;;;21.49
80537;BMP280;69867;47.074;15.404;2023-08-30T13:12:45;96480.09;;;21.49
80537;BMP280;69867;47.074;15.404;2023-08-30T13:15:10;96490.81;;;21.26
80537;BMP280;69867;47.074;15.404;2023-08-30T13:17:36;96492.03;;;20.90
80537;BMP280;69867;47.074;15.404;2023-08-30T13:20:02;96492.03;;;20.90
80537;BMP280;69867;47.074;15.404;2023-08-30T13:22:27;96491.94;;;20.69
80537;BMP280;69867;47.074;15.404;2023-08-30T13:24:53;96491.94;;;20.69
80537;BMP280;69867;47.074;15.404;2023-08-30T13:27:19;96500.72;;;20.59
80537;BMP280;69867;47.074;15.404;2023-08-30T13:29:44;96509.84;;;20.55
80537;BMP280;69867;47.074;15.404;2023-08-30T13:32:10;96511.19;;;20.49
80537;BMP280;69867;47.074;15.404;2023-08-30T13:34:35;96511.19;;;20.49
80537;BMP280;69867;47.074;15.404;2023-08-30T13:37:01;96514.91;;;20.35
80537;BMP280;69867;47.074;15.404;2023-08-30T13:39:26;96527.38;;;20.11
80537;BMP280;69867;47.074;15.404;2023-08-30T13:41:52;96534.31;;;19.78
80537;BMP280;69867;47.074;15.404;2023-08-30T13:44:17;96534.31;;;19.78
80537;BMP280;69867;47.074;15.404;2023-08-30T13:46:43;96555.03;;;19.48
80537;BMP280;69867;47.074;15.404;2023-08-30T13:49:09;96557.22;;;18.95
80537;BMP280;69867;47.074;15.404;2023-08-30T13:51:35;96557.22;;;18.95
80537;BMP280;69867;47.074;15.404;2023-08-30T13:54:00;96562.19;;;18.50
80537;BMP280;69867;47.074;15.404;2023-08-30T13:56:25;96559.28;;;18.17